Stormwatcher's Retreat Logo




                  Temp     Hi    Low   Out    Dew  Wind  Wind   Wind    Hi    Hi   Wind   Heat    THW   THSW                Rain  Solar   Solar Hi Solar   UV    UV    Hi     Heat    Cool    In     In    In     In     In   In Air          Wind  Wind    ISS   Arc.
  Date    Time     Out   Temp   Temp   Hum    Pt. Speed   Dir    Run Speed   Dir  Chill  Index  Index  Index   Bar    Rain  Rate   Rad.  Energy    Rad.  Index  Dose   UV     D-D     D-D    Temp   Hum    Dew   Heat    EMC Density     ET   Samp   Tx   Recept  Int.
------------------------------------------------------------------------------------------------------------------------------------------------------------------------------------------------------------------------------------------------------------------------
 7/15/18 12:10a   57.8   57.8   57.6    93   55.8   5.0   ENE   0.83  11.0     E   57.4   58.0   57.6   54.8  30.040  0.00  0.00     0     0.00      0     0.0  0.00   0.0   0.050   0.000   72.3    57   56.2   72.1  10.46  .0738    0.000   211    5    100.0   10 
 7/15/18 12:20a   57.8   57.9   57.8    93   55.8   4.0   ENE   0.67  10.0   ENE   57.8   58.0   58.0   55.2  30.040  0.00  0.00     0     0.00      0     0.0  0.00   0.0   0.050   0.000   72.2    57   56.1   72.0  10.46  .0738    0.000   211    5    100.0   10 
 7/15/18 12:30a   57.5   57.8   57.5    93   55.5   6.0   ENE   1.00  12.0   ENE   56.6   57.7   56.8   54.0  30.040  0.00  0.00     0     0.00      0     0.0  0.00   0.0   0.052   0.000   72.2    57   56.1   72.0  10.46  .0738    0.000   213    5    100.0   10 
 7/15/18 12:40a   56.9   57.5   56.9    92   54.6   5.0   ENE   0.83   9.0   ENE   56.3   57.0   56.4   53.5  30.040  0.00  0.00     0     0.00      0     0.0  0.00   0.0   0.056   0.000   72.2    57   56.1   72.0  10.46  .0738    0.000   213    5    100.0   10 
 7/15/18 12:50a   55.9   56.9   55.9    93   53.9   5.0    NE   0.83   9.0    NE   55.2   56.1   55.4   52.5  30.035  0.00  0.00     0     0.00      0     0.0  0.00   0.0   0.063   0.000   72.2    57   56.1   72.0  10.46  .0738    0.000   213    5    100.0   10 
 7/15/18  1:00a   55.3   55.9   55.3    93   53.3   4.0    NE   0.67   7.0   ENE   55.0   55.5   55.2   52.3  30.034  0.00  0.00     0     0.00      0     0.0  0.00   0.0   0.067   0.000   72.2    57   56.1   72.0  10.46  .0738    0.000   210    5    100.0   10 
 7/15/18  1:10a   55.2   55.3   55.1    93   53.2   3.0    NE   0.50   6.0    NE   55.2   55.4   55.4   52.5  30.035  0.00  0.00     0     0.00      0     0.0  0.00   0.0   0.068   0.000   72.2    57   56.1   72.0  10.46  .0738    0.000   212    5    100.0   10 
 7/15/18  1:20a   55.6   55.6   55.1    94   53.9   4.0   ENE   0.67   7.0     E   55.3   55.8   55.5   52.6  30.035  0.00  0.00     0     0.00      0     0.0  0.00   0.0   0.065   0.000   72.2    57   56.1   72.0  10.46  .0738    0.000   213    5    100.0   10 
 7/15/18  1:30a   56.1   56.1   55.6    94   54.4   4.0   ENE   0.67   9.0   ENE   55.9   56.3   56.1   53.2  30.035  0.00  0.00     0     0.00      0     0.0  0.00   0.0   0.062   0.000   72.2    57   56.1   72.0  10.46  .0738    0.000   210    5    100.0   10 
 7/15/18  1:40a   56.4   56.4   56.1    94   54.7   4.0   ENE   0.67   8.0   ENE   56.3   56.6   56.5   53.6  30.032  0.00  0.00     0     0.00      0     0.0  0.00   0.0   0.060   0.000   72.2    57   56.1   72.0  10.46  .0738    0.000   212    5    100.0   10 
 7/15/18  1:50a   56.2   56.4   56.2    94   54.5   5.0   ENE   0.83  10.0    NE   55.5   56.4   55.7   52.8  30.031  0.00  0.00     0     0.00      0     0.0  0.00   0.0   0.061   0.000   72.1    57   56.0   71.8  10.47  .0738    0.000   206    5     99.5   10 
 7/15/18  2:00a   55.8   56.2   55.8    94   54.1   5.0    NE   0.83   9.0    NE   55.1   56.0   55.3   52.4  30.029  0.00  0.00     0     0.00      0     0.0  0.00   0.0   0.064   0.000   72.1    57   56.0   71.8  10.47  .0738    0.000   212    5    100.0   10 
 7/15/18  2:10a   55.4   55.8   55.4    94   53.7   4.0    NE   0.67   9.0   ENE   55.1   55.6   55.3   52.4  30.027  0.00  0.00     0     0.00      0     0.0  0.00   0.0   0.067   0.000   72.1    57   56.0   71.8  10.47  .0738    0.000   213    5    100.0   10 
 7/15/18  2:20a   55.5   55.5   55.4    94   53.8   4.0   ENE   0.67   9.0    NE   55.2   55.7   55.4   52.5  30.025  0.00  0.00     0     0.00      0     0.0  0.00   0.0   0.066   0.000   72.1    57   56.0   71.8  10.47  .0738    0.000   212    5    100.0   10 
 7/15/18  2:30a   55.2   55.6   55.2    94   53.5   4.0   NNE   0.67   8.0     N   54.8   55.4   55.0   52.1  30.024  0.00  0.00     0     0.00      0     0.0  0.00   0.0   0.068   0.000   72.0    57   55.9   71.7  10.47  .0738    0.000   211    5    100.0   10 
 7/15/18  2:40a   54.9   55.2   54.9    94   53.2   4.0   ENE   0.67   7.0    NE   54.5   55.1   54.7   51.8  30.024  0.00  0.00     0     0.00      0     0.0  0.00   0.0   0.070   0.000   72.0    57   55.9   71.7  10.47  .0738    0.000   209    5    100.0   10 
 7/15/18  2:50a   54.7   54.9   54.7    94   53.0   3.0   ENE   0.50   5.0   NNE   54.7   54.9   54.9   52.0  30.025  0.00  0.00     0     0.00      0     0.0  0.00   0.0   0.072   0.000   72.0    57   55.9   71.7  10.47  .0738    0.000   210    5    100.0   10 
 7/15/18  3:00a   54.4   54.7   54.4    94   52.7   2.0   ENE   0.33   4.0    NE   54.4   54.6   54.6   51.6  30.023  0.00  0.00     0     0.00      0     0.0  0.00   0.0   0.074   0.000   72.0    57   55.9   71.7  10.47  .0738    0.000   211    5    100.0   10 
 7/15/18  3:10a   54.1   54.4   54.1    94   52.4   1.0    NE   0.17   3.0    NE   54.1   54.3   54.3   51.3  30.025  0.00  0.00     0     0.00      0     0.0  0.00   0.0   0.076   0.000   72.0    57   55.9   71.7  10.47  .0738    0.000   213    5    100.0   10 
 7/15/18  3:20a   53.8   54.1   53.8    94   52.1   0.0    NE   0.00   1.0    NE   53.8   54.0   54.0   51.0  30.023  0.00  0.00     0     0.00      0     0.0  0.00   0.0   0.078   0.000   72.0    57   55.9   71.7  10.47  .0738    0.000   211    5    100.0   10 
 7/15/18  3:30a   53.6   53.8   53.6    94   51.9   0.0   ---   0.00   0.0   ---   53.6   53.8   53.8   50.8  30.020  0.00  0.00     0     0.00      0     0.0  0.00   0.0   0.079   0.000   71.9    57   55.8   71.5  10.47  .0738    0.000   213    5    100.0   10 
 7/15/18  3:40a   53.3   53.6   53.3    94   51.6   0.0   ---   0.00   0.0   ---   53.3   53.5   53.5   50.5  30.019  0.00  0.00     0     0.00      0     0.0  0.00   0.0   0.081   0.000   71.9    57   55.8   71.5  10.47  .0738    0.000   212    5    100.0   10 
 7/15/18  3:50a   53.0   53.3   53.0    94   51.3   0.0    NE   0.00   1.0    NE   53.0   53.3   53.3   50.3  30.015  0.00  0.00     0     0.00      0     0.0  0.00   0.0   0.083   0.000   71.9    57   55.8   71.5  10.47  .0738    0.000   209    5    100.0   10 
 7/15/18  4:00a   52.9   53.0   52.9    94   51.2   0.0    NE   0.00   1.0    NE   52.9   53.2   53.2   50.2  30.011  0.00  0.00     0     0.00      0     0.0  0.00   0.0   0.084   0.000   71.8    57   55.7   71.4  10.48  .0738    0.000   213    5    100.0   10 
 7/15/18  4:10a   52.3   52.9   52.3    94   50.6   1.0    NE   0.17   2.0    NE   52.3   52.6   52.6   49.5  30.011  0.00  0.00     0     0.00      0     0.0  0.00   0.0   0.088   0.000   71.8    57   55.7   71.4  10.48  .0738    0.000   208    5    100.0   10 
 7/15/18  4:20a   52.1   52.3   52.1    94   50.4   1.0    NE   0.17   2.0    NE   52.1   52.4   52.4   49.3  30.011  0.00  0.00     0     0.00      0     0.0  0.00   0.0   0.090   0.000   71.8    57   55.7   71.4  10.48  .0738    0.000   212    5    100.0   10 
 7/15/18  4:30a   51.8   52.1   51.8    94   50.1   1.0    NE   0.17   2.0    NE   51.8   52.1   52.1   49.0  30.010  0.00  0.00     0     0.00      0     0.0  0.00   0.0   0.092   0.000   71.8    57   55.7   71.4  10.48  .0738    0.000   213    5    100.0   10 
 7/15/18  4:40a   51.5   51.8   51.5    94   49.8   0.0    NE   0.00   2.0    NE   51.5   51.8   51.8   48.7  30.009  0.00  0.00     0     0.00      0     0.0  0.00   0.0   0.094   0.000   71.7    57   55.7   71.2  10.48  .0738    0.000   212    5    100.0   10 
 7/15/18  4:50a   51.4   51.5   51.4    95   50.0   0.0    NE   0.00   1.0    NE   51.4   51.8   51.8   48.7  30.011  0.00  0.00     0     0.00      0     0.0  0.00   0.0   0.094   0.000   71.7    57   55.7   71.2  10.48  .0738    0.000   213    5    100.0   10 
 7/15/18  5:00a   51.4   51.4   51.4    95   50.0   0.0    NE   0.00   1.0    NE   51.4   51.8   51.8   48.7  30.010  0.00  0.00     0     0.00      0     0.0  0.00   0.0   0.094   0.000   71.7    57   55.7   71.2  10.48  .0738    0.000   212    5    100.0   10 
 7/15/18  5:10a   50.9   51.4   50.9    94   49.2   0.0    NE   0.00   2.0     E   50.9   51.3   51.3   48.2  30.010  0.00  0.00     0     0.00      0     0.0  0.00   0.0   0.098   0.000   71.6    57   55.6   71.1  10.49  .0738    0.000   211    5    100.0   10 
 7/15/18  5:20a   51.0   51.0   50.8    95   49.6   0.0   ---   0.00   0.0   ---   51.0   51.4   51.4   48.3  30.010  0.00  0.00     0     0.00      0     0.0  0.00   0.0   0.097   0.000   71.6    57   55.6   71.1  10.49  .0738    0.000   210    5    100.0   10 
 7/15/18  5:30a   51.1   51.2   51.0    95   49.7   0.0   SSE   0.00   1.0   SSE   51.1   51.5   51.5   48.4  30.010  0.00  0.00     0     0.00      0     0.0  0.00   0.0   0.097   0.000   71.6    57   55.6   71.1  10.49  .0738    0.000   213    5    100.0   10 
 7/15/18  5:40a   51.0   51.1   50.9    95   49.6   0.0   ---   0.00   0.0   ---   51.0   51.4   51.4   48.3  30.011  0.00  0.00     0     0.00      0     0.0  0.00   0.0   0.097   0.000   71.5    57   55.5   70.9  10.49  .0738    0.000   209    5    100.0   10 
 7/15/18  5:50a   51.4   51.4   51.0    95   50.0   0.0   ---   0.00   0.0   ---   51.4   51.8   51.8   48.8  30.010  0.00  0.00     2     0.03      5     0.0  0.00   0.0   0.094   0.000   71.5    57   55.5   70.9  10.49  .0738    0.000   210    5    100.0   10 
 7/15/18  6:00a   51.5   51.6   51.4    95   50.1   0.0   SSE   0.00   1.0   SSE   51.5   51.8   51.8   48.9  30.010  0.00  0.00     9     0.13     11     0.0  0.00   0.0   0.094   0.000   71.5    56   55.0   70.8  10.32  .0738    0.000   210    5    100.0   10 
 7/15/18  6:10a   51.2   51.6   51.2    95   49.8   0.0   ---   0.00   0.0   ---   51.2   51.6   51.6   48.8  30.011  0.00  0.00    13     0.19     14     0.0  0.00   0.0   0.096   0.000   71.4    56   54.9   70.7  10.32  .0739    0.000   212    5    100.0   10 
 7/15/18  6:20a   51.0   51.2   51.0    95   49.6   0.0   SSE   0.00   1.0   SSE   51.0   51.4   51.4   48.7  30.007  0.00  0.00    17     0.24     18     0.0  0.00   0.0   0.097   0.000   71.4    56   54.9   70.7  10.32  .0739    0.000   207    5    100.0   10 
 7/15/18  6:30a   51.0   51.1   50.9    95   49.6   0.0   SSE   0.00   1.0   SSE   51.0   51.4   51.4   48.7  30.009  0.00  0.00    20     0.29     21     0.0  0.00   0.0   0.097   0.000   71.4    56   54.9   70.7  10.32  .0739    0.000   212    5    100.0   10 
 7/15/18  6:40a   51.1   51.1   50.9    95   49.7   0.0   SSE   0.00   1.0   SSE   51.1   51.5   51.5   48.9  30.009  0.00  0.00    25     0.36     26     0.0  0.00   0.0   0.097   0.000   71.4    56   54.9   70.7  10.32  .0739    0.000   211    5    100.0   10 
 7/15/18  6:50a   51.0   51.2   51.0    95   49.6   0.0   SSE   0.00   1.0   SSE   51.0   51.4   51.4   51.0  30.010  0.00  0.00    32     0.46     35     0.0  0.00   0.0   0.097   0.000   71.3    56   54.8   70.5  10.32  .0739    0.000   210    5    100.0   10 
 7/15/18  7:00a   50.8   51.0   50.7    95   49.4   0.0   SSE   0.00   2.0   SSE   50.8   51.2   51.2   51.9  30.012  0.00  0.00    58     0.83     86     0.0  0.00   0.0   0.099   0.000   71.3    56   54.8   70.5  10.32  .0739    0.001   213    5    100.0   10 
 7/15/18  7:10a   50.5   50.8   50.5    95   49.1   1.0   SSE   0.17   2.0   SSE   50.5   51.0   51.0   53.2  30.012  0.00  0.00    97     1.39    113     0.0  0.00   0.0   0.101   0.000   71.3    56   54.8   70.5  10.32  .0739    0.000   209    5    100.0   10 
 7/15/18  7:20a   50.4   50.6   50.4    95   49.0   1.0   SSE   0.17   2.0   SSE   50.4   50.9   50.9   54.9  30.011  0.00  0.00   146     2.09    171     0.0  0.00   0.0   0.101   0.000   71.3    56   54.8   70.5  10.32  .0739    0.000   211    5    100.0   10 
 7/15/18  7:30a   50.3   50.4   50.3    95   48.9   1.0     S   0.17   2.0     S   50.3   50.8   50.8   54.5  30.013  0.00  0.00   143     2.05    151     0.0  0.00   0.0   0.102   0.000   71.3    56   54.8   70.5  10.32  .0739    0.000   212    5    100.0   10 
 7/15/18  7:40a   50.3   50.3   50.2    95   48.9   1.0   SSW   0.17   2.0   SSW   50.3   50.8   50.8   54.9  30.016  0.00  0.00   156     2.24    169     0.0  0.00   0.0   0.102   0.000   71.2    56   54.7   70.4  10.33  .0739    0.000   210    5    100.0   10 
 7/15/18  7:50a   50.6   50.6   50.3    95   49.2   0.0   SSW   0.00   2.0   SSW   50.6   51.0   51.0   55.2  30.019  0.00  0.00   164     2.35    185     0.0  0.00   0.0   0.100   0.000   71.3    56   54.8   70.5  10.32  .0739    0.000   212    5    100.0   10 
 7/15/18  8:00a   50.3   50.6   50.3    95   48.9   1.0   SSW   0.17   2.0   SSW   50.3   50.8   50.8   54.4  30.019  0.00  0.00   152     2.18    163     0.0  0.00   0.0   0.102   0.000   71.2    56   54.7   70.4  10.33  .0739    0.003   209    5    100.0   10 
 7/15/18  8:10a   50.8   50.8   50.3    96   49.7   0.0   SSW   0.00   1.0   SSW   50.8   51.3   51.3   56.0  30.021  0.00  0.00   191     2.74    207     0.0  0.00   0.0   0.099   0.000   71.2    56   54.7   70.4  10.33  .0739    0.000   212    5    100.0   10 
 7/15/18  8:20a   50.9   51.0   50.8    95   49.5   1.0   SSW   0.17   2.0   SSW   50.9   51.3   51.3   56.3  30.018  0.00  0.00   208     2.98    216     0.0  0.00   0.0   0.098   0.000   71.2    56   54.7   70.4  10.33  .0739    0.000   212    5    100.0   10 
 7/15/18  8:30a   50.8   50.9   50.8    95   49.4   1.0   SSW   0.17   2.0   SSW   50.8   51.2   51.2   57.1  30.019  0.00  0.00   242     3.47    283     0.0  0.00   0.0   0.099   0.000   71.2    56   54.7   70.4  10.33  .0739    0.000   214    5    100.0   10 
 7/15/18  8:40a   51.0   51.1   50.8    96   49.9   1.0   SSW   0.17   3.0   SSW   51.0   51.4   51.4   58.8  30.021  0.00  0.00   309     4.43    380     0.0  0.00   0.0   0.097   0.000   71.2    56   54.7   70.4  10.33  .0739    0.000   211    5    100.0   10 
 7/15/18  8:50a   51.0   51.2   51.0    95   49.6   2.0     S   0.33   3.0     S   51.0   51.4   51.4   59.9  30.023  0.00  0.00   369     5.29    469     0.0  0.00   0.0   0.097   0.000   71.2    56   54.7   70.4  10.33  .0739    0.000   208    5    100.0   10 
 7/15/18  9:00a   50.7   51.0   50.6    95   49.3   2.0    SW   0.33   3.0    SW   50.7   51.1   51.1   59.6  30.021  0.00  0.00   379     5.43    436     0.0  0.00   0.0   0.099   0.000   71.3    56   54.8   70.5  10.32  .0739    0.005   211    5    100.0   10 
 7/15/18  9:10a   51.0   51.0   50.7    96   49.9   1.0    SW   0.17   2.0   SSW   51.0   51.4   51.4   60.5  30.023  0.00  0.00   429     6.15    494     0.0  0.00   0.0   0.097   0.000   71.2    56   54.7   70.4  10.33  .0739    0.000   212    5    100.0   10 
 7/15/18  9:20a   51.3   51.3   51.0    96   50.2   1.0     S   0.17   3.0   SSW   51.3   51.7   51.7   61.8  30.019  0.00  0.00   506     7.25    524     0.0  0.00   0.0   0.095   0.000   71.3    56   54.8   70.5  10.32  .0739    0.000   212    5    100.0   10 
 7/15/18  9:30a   50.9   51.3   50.9    96   49.8   2.0    SW   0.33   3.0    SW   50.9   51.4   51.4   61.6  30.024  0.00  0.00   536     7.68    550     0.0  0.00   0.0   0.098   0.000   71.3    56   54.8   70.5  10.32  .0739    0.000   210    5    100.0   10 
 7/15/18  9:40a   50.8   50.9   50.8    96   49.7   2.0    SW   0.33   3.0    SW   50.8   51.3   51.3   61.6  30.021  0.00  0.00   556     7.97    570     0.0  0.00   0.0   0.099   0.000   71.3    56   54.8   70.5  10.32  .0739    0.000   211    5    100.0   10 
 7/15/18  9:50a   51.2   51.2   50.8    96   50.1   1.0    SW   0.17   3.0    SW   51.2   51.6   51.6   62.1  30.021  0.00  0.00   591     8.47    605     0.0  0.00   0.5   0.096   0.000   71.3    56   54.8   70.5  10.32  .0739    0.000   211    5    100.0   10 
 7/15/18 10:00a   51.5   51.5   51.2    96   50.4   2.0    SW   0.33   3.0    SW   51.5   51.9   51.9   62.5  30.022  0.00  0.00   616     8.83    626     1.0  0.07   1.3   0.094   0.000   71.3    56   54.8   70.5  10.32  .0739    0.010   209    5    100.0   10 
 7/15/18 10:10a   51.9   51.9   51.5    96   50.8   2.0     W   0.33   3.0     W   51.9   52.3   52.3   62.9  30.020  0.00  0.00   641     9.19    650     1.5  0.11   1.7   0.091   0.000   71.3    56   54.8   70.5  10.32  .0739    0.000   211    5    100.0   10 
 7/15/18 10:20a   52.1   52.1   51.8    96   51.0   2.0     W   0.33   3.0   WNW   52.1   52.4   52.4   63.1  30.018  0.00  0.00   664     9.52    673     2.0  0.14   2.2   0.090   0.000   71.3    56   54.8   70.5  10.32  .0739    0.000   210    5    100.0   10 
 7/15/18 10:30a   52.9   52.9   52.1    96   51.8   2.0    NW   0.33   3.0     W   52.9   53.2   53.2   64.0  30.017  0.00  0.00   687     9.85    698     2.3  0.16   2.4   0.084   0.000   71.3    56   54.8   70.5  10.32  .0739    0.000   214    5    100.0   10 
 7/15/18 10:40a   53.4   53.4   52.9    96   52.3   2.0    NW   0.33   4.0     N   53.4   53.7   53.7   64.6  30.015  0.00  0.00   710    10.18    721     2.5  0.18   2.6   0.081   0.000   71.3    56   54.8   70.5  10.32  .0739    0.000   210    5    100.0   10 
 7/15/18 10:50a   54.2   54.2   53.4    96   53.1   3.0     N   0.50   5.0   NNE   54.2   54.4   54.4   65.4  30.016  0.00  0.00   732    10.49    742     2.7  0.19   2.7   0.075   0.000   71.3    56   54.8   70.5  10.32  .0739    0.000   211    5    100.0   10 
 7/15/18 11:00a   55.1   55.1   54.2    96   54.0   4.0     N   0.67   5.0     N   54.7   55.3   54.9   65.9  30.016  0.00  0.00   753    10.79    763     2.7  0.19   2.8   0.069   0.000   71.3    56   54.8   70.5  10.32  .0739    0.013   211    5    100.0   10 
 7/15/18 11:10a   56.2   56.2   55.1    95   54.8   4.0     N   0.67   7.0     N   56.0   56.4   56.2   67.3  30.018  0.00  0.00   773    11.08    780     3.0  0.21   3.1   0.061   0.000   71.2    56   54.7   70.4  10.33  .0739    0.000   213    5    100.0   10 
 7/15/18 11:20a   58.0   58.0   56.3    95   56.6   5.0   NNE   0.83   9.0   ENE   57.6   58.3   57.9   69.1  30.016  0.00  0.00   792    11.35    800     3.5  0.25   3.7   0.049   0.000   71.2    56   54.7   70.4  10.33  .0739    0.000   212    5    100.0   10 
 7/15/18 11:30a   58.9   58.9   58.0    94   57.2   5.0    NE   0.83  10.0   ENE   58.7   59.3   59.1   70.3  30.017  0.00  0.00   811    11.63    819     3.9  0.28   4.0   0.042   0.000   71.1    56   54.6   70.2  10.33  .0739    0.000   213    5    100.0   10 
 7/15/18 11:40a   59.4   59.4   58.9    93   57.4   8.0    NE   1.33  11.0    NE   57.8   59.7   58.1   68.6  30.016  0.00  0.00   826    11.84    833     4.1  0.29   4.1   0.039   0.000   71.0    56   54.5   70.1  10.33  .0740    0.000   210    5    100.0   10 
 7/15/18 11:50a   60.4   60.4   59.4    92   58.1   8.0    NE   1.33  11.0    NE   59.0   60.8   59.4   69.9  30.017  0.00  0.00   842    12.07    849     4.2  0.30   4.4   0.032   0.000   70.9    57   54.9   70.1  10.51  .0740    0.000   214    5    100.0   10 
 7/15/18 12:00p   61.5   61.5   60.4    92   59.2   7.0   NNE   1.17  12.0   NNE   61.1   62.0   61.6   72.6  30.019  0.00  0.00   857    12.29    863     4.5  0.32   4.6   0.024   0.000   70.8    57   54.8   69.9  10.52  .0740    0.017   213    5    100.0   10 
 7/15/18 12:10p   61.4   61.9   61.4    89   58.1   8.0    NE   1.33  12.0   NNE   60.2   61.8   60.6   71.1  30.020  0.00  0.00   868    12.44    872     4.8  0.34   4.8   0.025   0.000   70.8    57   54.8   69.9  10.52  .0740    0.000   212    5    100.0   10 
 7/15/18 12:20p   61.8   61.8   61.3    90   58.8   8.0    NE   1.33  11.0   NNE   60.7   62.3   61.2   71.7  30.024  0.00  0.00   878    12.59    882     4.8  0.34   4.9   0.022   0.000   70.7    57   54.7   69.8  10.52  .0740    0.000   212    5    100.0   10 
 7/15/18 12:30p   62.7   62.7   61.8    90   59.7   7.0    NE   1.17  11.0   NNE   62.5   63.3   63.1   74.1  30.028  0.00  0.00   889    12.74    893     5.0  0.36   5.1   0.016   0.000   70.7    57   54.7   69.8  10.52  .0740    0.000   210    5    100.0   10 
 7/15/18 12:40p   63.2   63.2   62.8    89   59.9   8.0    NE   1.33  12.0    NE   62.3   63.9   63.0   73.4  30.032  0.00  0.00   898    12.87    905     5.2  0.37   5.3   0.012   0.000   70.7    57   54.7   69.8  10.52  .0740    0.000   213    5    100.0   10 
 7/15/18 12:50p   63.4   63.4   63.1    88   59.8   8.0    NE   1.33  12.0   NNE   62.5   64.1   63.2   73.5  30.034  0.00  0.00   906    12.99    911     5.3  0.38   5.4   0.011   0.000   70.6    57   54.6   69.7  10.53  .0740    0.000   213    5    100.0   10 
 7/15/18  1:00p   63.8   63.9   63.4    87   59.9   8.0    NE   1.33  12.0    NE   63.0   64.5   63.7   73.9  30.037  0.00  0.00   915    13.12    919     5.4  0.39   5.5   0.008   0.000   70.6    57   54.6   69.7  10.53  .0741    0.019   211    5    100.0   10 
 7/15/18  1:10p   64.3   64.3   63.8    87   60.3   8.0    NE   1.33  11.0    NE   63.6   65.0   64.3   74.8  30.034  0.00  0.00   903    12.94    926     5.4  0.39   5.5   0.005   0.000   70.6    57   54.6   69.7  10.53  .0740    0.000   211    5    100.0   10 
 7/15/18  1:20p   64.4   64.4   64.2    86   60.1   8.0    NE   1.33  12.0   NNE   63.7   65.1   64.4   74.4  30.040  0.00  0.00   929    13.32    946     5.6  0.40   5.7   0.004   0.000   70.6    58   55.1   69.8  10.73  .0740    0.000   212    5    100.0   10 
 7/15/18  1:30p   64.9   64.9   64.4    86   60.6   8.0    NE   1.33  12.0    NE   64.3   65.7   65.1   74.9  30.034  0.00  0.00   931    13.35    940     5.6  0.40   5.6   0.001   0.000   70.6    58   55.1   69.8  10.73  .0740    0.000   212    5    100.0   10 
 7/15/18  1:40p   65.0   65.0   64.8    85   60.4   8.0    NE   1.33  12.0    NE   64.4   65.8   65.2   74.4  30.036  0.00  0.00   936    13.42    949     5.5  0.39   5.7   0.000   0.000   70.7    58   55.2   69.9  10.72  .0740    0.000   211    5    100.0   10 
 7/15/18  1:50p   64.9   65.0   64.8    85   60.3   8.0    NE   1.33  12.0    NE   64.3   65.7   65.1   76.1  30.035  0.00  0.00   805    11.54    868     4.8  0.34   5.2   0.001   0.000   70.7    58   55.2   69.9  10.72  .0740    0.000   212    5    100.0   10 
 7/15/18  2:00p   64.9   65.1   64.9    85   60.3   8.0    NE   1.33  12.0    NE   64.3   65.7   65.1   76.0  30.037  0.00  0.00   860    12.33    940     5.0  0.36   5.3   0.001   0.000   70.7    58   55.2   69.9  10.72  .0740    0.020   211    5    100.0   10 
 7/15/18  2:10p   64.8   65.0   64.8    84   59.9   8.0    NE   1.33  11.0    NE   64.2   65.5   64.9   75.6  30.036  0.00  0.00   865    12.40    942     4.9  0.35   5.2   0.001   0.000   70.7    58   55.2   69.9  10.72  .0740    0.000   212    5    100.0   10 
 7/15/18  2:20p   64.6   64.9   64.6    84   59.7   8.0    NE   1.33  12.0   ENE   63.9   65.3   64.6   74.7  30.035  0.00  0.00   646     9.26    851     3.7  0.26   4.8   0.003   0.000   70.8    58   55.3   70.0  10.72  .0740    0.000   213    5    100.0   10 
 7/15/18  2:30p   64.9   64.9   64.5    85   60.3   9.0    NE   1.50  12.0    NE   63.5   65.7   64.3   74.6  30.032  0.00  0.00   854    12.24   1009     4.3  0.31   5.2   0.001   0.000   70.8    58   55.3   70.0  10.72  .0740    0.000   211    5    100.0   10 
 7/15/18  2:40p   65.2   65.2   64.9    84   60.2   9.0    NE   1.50  14.0    NE   63.8   66.0   64.6   74.9  30.028  0.00  0.00   717    10.28    835     3.9  0.28   4.4   0.000   0.001   70.8    59   55.8   70.1  10.92  .0740    0.000   211    5    100.0   10 
 7/15/18  2:50p   65.2   65.2   65.0    84   60.2   8.0    NE   1.33  12.0   ENE   64.6   66.0   65.4   76.0  30.030  0.00  0.00   713    10.22    838     3.7  0.26   4.2   0.000   0.001   70.9    59   55.9   70.3  10.91  .0739    0.000   213    5    100.0   10 
 7/15/18  3:00p   65.3   65.7   65.2    83   60.0   9.0    NE   1.50  13.0   NNE   63.9   66.1   64.7   75.1  30.030  0.00  0.00   791    11.34    872     4.0  0.29   4.4   0.000   0.002   71.0    59   55.9   70.4  10.91  .0739    0.018   213    5    100.0   10 
 7/15/18  3:10p   65.2   65.2   65.0    84   60.2   9.0    NE   1.50  13.0    NE   63.8   66.0   64.6   74.1  30.030  0.00  0.00   877    12.57    935     4.3  0.31   4.6   0.000   0.001   71.1    59   56.0   70.5  10.91  .0739    0.000   211    5    100.0   10 
 7/15/18  3:20p   65.7   65.7   65.3    83   60.4   7.0   NNE   1.17  12.0    NE   65.7   66.6   66.6   77.6  30.029  0.00  0.00   705    10.11    796     3.4  0.24   3.8   0.000   0.005   71.2    59   56.1   70.7  10.90  .0739    0.000   213    5    100.0   10 
 7/15/18  3:30p   66.4   66.4   65.8    83   61.1   7.0    NE   1.17  12.0    NE   66.4   67.5   67.5   78.5  30.022  0.00  0.00   700    10.03    856     3.2  0.23   3.8   0.000   0.010   71.3    59   56.2   70.8  10.90  .0739    0.000   212    5    100.0   10 
 7/15/18  3:40p   67.3   67.3   66.4    82   61.6   8.0    NE   1.33  14.0   ENE   66.7   68.5   67.9   78.5  30.021  0.00  0.00   862    12.36    881     3.9  0.28   4.0   0.000   0.016   71.4    59   56.3   71.0  10.89  .0738    0.000   212    5    100.0   10 
 7/15/18  3:50p   67.5   67.6   67.4    82   61.8   9.0    NE   1.50  14.0   NNE   66.2   68.8   67.5   76.9  30.019  0.00  0.00   784    11.24    863     3.5  0.25   3.9   0.000   0.017   71.5    59   56.4   71.1  10.89  .0738    0.000   213    5    100.0   10 
 7/15/18  4:00p   66.2   67.5   66.2    81   60.2   8.0   NNE   1.33  14.0   NNE   65.6   67.2   66.6   76.9  30.018  0.00  0.00   743    10.65    763     1.8  0.13   3.2   0.000   0.008   71.6    59   56.5   71.3  10.89  .0738    0.018   212    5    100.0   10 
 7/15/18  4:10p   66.8   66.8   66.0    82   61.1   8.0    NE   1.33  14.0   ENE   66.2   67.9   67.3   77.7  30.018  0.00  0.00   777    11.14    819     2.7  0.19   3.0   0.000   0.013   71.7    59   56.6   71.4  10.88  .0738    0.000   213    5    100.0   10 
 7/15/18  4:20p   66.3   66.8   66.3    82   60.6   7.0    NE   1.17  12.0   ENE   66.3   67.3   67.3   75.2  30.016  0.00  0.00   409     5.86    575     0.7  0.05   1.6   0.000   0.009   71.8    59   56.7   71.5  10.88  .0738    0.000   214    5    100.0   10 
 7/15/18  4:30p   66.2   66.5   66.2    82   60.5   8.0    NE   1.33  13.0   ENE   65.6   67.2   66.6   76.9  30.015  0.00  0.00   606     8.69    693     1.6  0.11   2.1   0.000   0.008   71.9    59   56.8   71.7  10.87  .0737    0.000   212    5    100.0   10 
 7/15/18  4:40p   65.3   66.2   65.3    83   60.0   9.0    NE   1.50  14.0   NNE   63.9   66.1   64.7   73.0  30.014  0.00  0.00   452     6.48    496     0.1  0.01   0.6   0.000   0.002   72.0    59   56.9   71.8  10.87  .0737    0.000   210    5    100.0   10 
 7/15/18  4:50p   65.2   65.3   65.2    84   60.2   9.0    NE   1.50  14.0   NNE   63.8   66.0   64.6   73.4  30.011  0.00  0.00   475     6.81    577     0.0  0.00   0.0   0.000   0.001   72.1    60   57.4   72.1  11.01  .0737    0.000   212    5    100.0   10 
 7/15/18  5:00p   65.6   65.6   65.2    84   60.6   9.0    NE   1.50  14.0    NE   64.3   66.5   65.2   74.9  30.012  0.00  0.00   538     7.71    584     0.0  0.00   0.0   0.000   0.004   72.2    60   57.5   72.2  11.01  .0737    0.013   212    5    100.0   10 
 7/15/18  5:10p   66.3   66.3   65.7    84   61.3   8.0    NE   1.33  15.0   NNE   65.7   67.4   66.8   77.0  30.011  0.00  0.00   581     8.33    608     0.0  0.00   0.0   0.000   0.009   72.2    60   57.5   72.2  11.01  .0736    0.000   213    5    100.0   10 
 7/15/18  5:20p   66.7   66.7   66.3    84   61.7   8.0    NE   1.33  16.0   NNE   66.1   67.9   67.3   78.3  30.011  0.00  0.00   621     8.90    629     0.0  0.00   0.0   0.000   0.012   72.4    60   57.7   72.5  11.00  .0736    0.000   212    5    100.0   10 
 7/15/18  5:30p   67.2   67.3   66.7    82   61.5   9.0    NE   1.50  16.0   NNE   65.9   68.4   67.1   77.0  30.012  0.00  0.00   561     8.04    621     0.0  0.00   0.0   0.000   0.015   72.5    60   57.8   72.7  11.00  .0736    0.000   212    5    100.0   10 
 7/15/18  5:40p   66.4   67.2   66.4    83   61.1   8.0    NE   1.33  13.0   NNE   65.8   67.5   66.9   74.7  30.006  0.00  0.00   342     4.90    445     0.0  0.00   0.0   0.000   0.010   72.6    60   57.9   72.8  11.00  .0736    0.000   211    5    100.0   10 
 7/15/18  5:50p   65.3   66.4   65.3    84   60.3   9.0    NE   1.50  14.0    NE   63.9   66.1   64.7   71.5  30.002  0.00  0.00   305     4.37    369     0.0  0.00   0.0   0.000   0.002   72.7    60   58.0   72.9  11.00  .0735    0.000   211    5    100.0   10 
 7/15/18  6:00p   65.0   65.3   64.9    85   60.4   9.0   ENE   1.50  13.0    NE   63.6   65.8   64.4   71.9  30.005  0.00  0.00   323     4.63    362     0.0  0.00   0.0   0.000   0.000   72.8    60   58.1   73.1  10.99  .0735    0.011   211    5    100.0   10 
 7/15/18  6:10p   64.8   65.0   64.8    85   60.2   9.0   ENE   1.50  14.0    NE   63.4   65.6   64.2   71.2  30.004  0.00  0.00   292     4.19    320     0.0  0.00   0.0   0.001   0.000   72.9    60   58.2   73.3  10.99  .0735    0.000   213    5    100.0   10 
 7/15/18  6:20p   64.5   64.8   64.5    86   60.2   8.0   ENE   1.33  15.0   ENE   63.8   65.2   64.5   70.5  30.004  0.00  0.00   232     3.33    244     0.0  0.00   0.0   0.003   0.000   73.0    60   58.3   73.4  10.99  .0735    0.000   212    5    100.0   10 
 7/15/18  6:30p   64.1   64.5   64.1    86   59.8   8.0    NE   1.33  13.0   ENE   63.3   64.8   64.0   69.9  30.000  0.00  0.00   223     3.20    243     0.0  0.00   0.0   0.006   0.000   73.0    60   58.3   73.4  10.99  .0735    0.000   210    5    100.0   10 
 7/15/18  6:40p   63.9   64.1   63.8    87   60.0   9.0   ENE   1.50  13.0    NE   62.3   64.6   63.0   70.0  29.997  0.00  0.00   271     3.88    283     0.0  0.00   0.0   0.008   0.000   73.1    60   58.4   73.5  10.99  .0735    0.000   213    5    100.0   10 
 7/15/18  6:50p   64.3   64.3   63.8    87   60.3   9.0    NE   1.50  16.0   ENE   62.8   65.0   63.5   71.2  29.997  0.00  0.00   309     4.43    322     0.0  0.00   0.0   0.005   0.000   73.1    60   58.4   73.5  10.99  .0735    0.000   209    5    100.0   10 
 7/15/18  7:00p   64.7   64.7   64.3    86   60.4   9.0   ENE   1.50  15.0    NE   63.2   65.5   64.0   72.3  29.998  0.00  0.00   312     4.47    318     0.0  0.00   0.0   0.002   0.000   73.3    60   58.6   73.8  10.98  .0734    0.007   211    5    100.0   10 
 7/15/18  7:10p   64.7   64.9   64.7    86   60.4   9.0    NE   1.50  15.0    NE   63.2   65.5   64.0   71.9  30.000  0.00  0.00   285     4.09    301     0.0  0.00   0.0   0.002   0.000   73.3    60   58.6   73.8  10.98  .0734    0.000   213    5    100.0   10 
 7/15/18  7:20p   64.6   64.8   64.6    86   60.3   9.0   ENE   1.50  13.0    NE   63.1   65.4   63.9   70.3  30.004  0.00  0.00   236     3.38    260     0.0  0.00   0.0   0.003   0.000   73.4    60   58.7   73.9  10.98  .0734    0.000   211    5    100.0   10 
 7/15/18  7:30p   64.4   64.6   64.4    86   60.1   9.0   ENE   1.50  14.0   NNE   62.9   65.1   63.6   69.5  30.006  0.00  0.00   215     3.08    220     0.0  0.00   0.0   0.004   0.000   73.5    60   58.8   74.1  10.98  .0734    0.000   207    5    100.0   10 
 7/15/18  7:40p   64.1   64.4   64.0    86   59.8   8.0   ENE   1.33  13.0     E   63.3   64.8   64.0   69.5  30.007  0.00  0.00   192     2.75    207     0.0  0.00   0.0   0.006   0.000   73.6    60   58.9   74.2  10.98  .0734    0.000   209    5    100.0   10 
 7/15/18  7:50p   63.6   64.1   63.6    86   59.3   8.0   ENE   1.33  13.0   ENE   62.8   64.2   63.4   67.4  30.012  0.00  0.00   148     2.12    171     0.0  0.00   0.0   0.010   0.000   73.7    60   58.9   74.3  10.98  .0734    0.000   211    5    100.0   10 
 7/15/18  8:00p   63.0   63.6   63.0    87   59.1   8.0   ENE   1.33  12.0   ENE   62.1   63.6   62.7   62.3  30.014  0.00  0.00   101     1.45    123     0.0  0.00   0.0   0.014   0.000   73.8    60   59.0   74.4  10.97  .0734    0.005   211    5    100.0   10 
 7/15/18  8:10p   62.9   63.1   62.9    87   59.0   7.0   ENE   1.17  11.0    NE   62.8   63.5   63.4   62.4  30.012  0.00  0.00    75     1.08     93     0.0  0.00   0.0   0.015   0.000   73.8    60   59.0   74.4  10.97  .0734    0.000   212    5    100.0   10 
 7/15/18  8:20p   62.1   62.9   62.1    87   58.2   7.0   ENE   1.17  13.0    NE   61.8   62.5   62.2   60.5  30.013  0.00  0.00    44     0.63     54     0.0  0.00   0.0   0.020   0.000   73.8    59   58.6   74.3  10.80  .0734    0.000   211    5    100.0   10 
 7/15/18  8:30p   61.9   62.2   61.9    88   58.3   7.0   ENE   1.17  12.0   NNE   61.6   62.3   62.0   60.2  30.013  0.00  0.00    38     0.54     44     0.0  0.00   0.0   0.022   0.000   73.7    59   58.5   74.2  10.80  .0734    0.000   212    5    100.0   10 
 7/15/18  8:40p   61.1   61.8   61.1    88   57.5   7.0   ENE   1.17  10.0   ENE   60.5   61.4   60.8   58.6  30.012  0.00  0.00    21     0.30     28     0.0  0.00   0.0   0.027   0.000   73.6    59   58.4   74.1  10.81  .0734    0.000   213    5    100.0   10 
 7/15/18  8:50p   60.5   61.1   60.5    89   57.2   6.0    NE   1.00  11.0   NNE   60.2   60.8   60.5   58.0  30.010  0.00  0.00    11     0.16     16     0.0  0.00   0.0   0.031   0.000   73.5    59   58.3   74.0  10.81  .0734    0.000   210    5    100.0   10 
 7/15/18  9:00p   60.6   60.6   60.5    89   57.3   5.0   ENE   0.83  10.0     E   60.6   60.9   60.9   58.3  30.012  0.00  0.00     6     0.09      7     0.0  0.00   0.0   0.031   0.000   73.4    59   58.2   73.8  10.81  .0735    0.001   211    5    100.0   10 
 7/15/18  9:10p   60.6   60.6   60.5    90   57.7   5.0    NE   0.83  10.0    NE   60.6   61.0   61.0   58.3  30.010  0.00  0.00     1     0.01      5     0.0  0.00   0.0   0.031   0.000   73.4    59   58.2   73.8  10.81  .0735    0.000   211    5    100.0   10 
 7/15/18  9:20p   60.1   60.6   60.1    90   57.2   5.0   ENE   0.83   9.0   ENE   60.1   60.4   60.4   57.7  30.010  0.00  0.00     0     0.00      0     0.0  0.00   0.0   0.034   0.000   73.4    59   58.2   73.8  10.81  .0735    0.000   210    5    100.0   10 
 7/15/18  9:30p   59.9   60.1   59.9    90   57.0   5.0   ENE   0.83   9.0    NE   59.9   60.2   60.2   57.4  30.015  0.00  0.00     0     0.00      0     0.0  0.00   0.0   0.035   0.000   73.4    59   58.2   73.8  10.81  .0735    0.000   211    5    100.0   10 
 7/15/18  9:40p   60.0   60.0   59.8    91   57.4   5.0   ENE   0.83   9.0    NE   60.0   60.3   60.3   57.6  30.016  0.00  0.00     0     0.00      0     0.0  0.00   0.0   0.035   0.000   73.5    59   58.3   74.0  10.81  .0734    0.000   212    5    100.0   10 
 7/15/18  9:50p   60.1   60.2   60.0    91   57.5   5.0    NE   0.83  10.0   ENE   60.1   60.4   60.4   57.7  30.020  0.00  0.00     0     0.00      0     0.0  0.00   0.0   0.034   0.000   73.5    59   58.3   74.0  10.81  .0735    0.000   210    5    100.0   10 
 7/15/18 10:00p   59.6   60.1   59.6    91   57.0   5.0   ENE   0.83   9.0   NNE   59.5   59.9   59.8   57.0  30.023  0.00  0.00     0     0.00      0     0.0  0.00   0.0   0.038   0.000   73.5    59   58.3   74.0  10.81  .0735    0.000   211    5    100.0   10 
 7/15/18 10:10p   59.3   59.6   59.3    91   56.7   6.0    NE   1.00  11.0   ENE   58.8   59.6   59.1   56.3  30.025  0.00  0.00     0     0.00      0     0.0  0.00   0.0   0.040   0.000   73.5    59   58.3   74.0  10.81  .0735    0.000   214    5    100.0   10 
 7/15/18 10:20p   59.7   59.7   59.2    92   57.4   6.0   ENE   1.00  12.0   ENE   59.2   60.0   59.5   56.8  30.026  0.00  0.00     0     0.00      0     0.0  0.00   0.0   0.037   0.000   73.5    59   58.3   74.0  10.81  .0735    0.000   213    5    100.0   10 
 7/15/18 10:30p   60.0   60.0   59.7    92   57.7   5.0   ENE   0.83  12.0   ENE   60.0   60.3   60.3   57.6  30.031  0.00  0.00     0     0.00      0     0.0  0.00   0.0   0.035   0.000   73.5    59   58.3   74.0  10.81  .0735    0.000   212    5    100.0   10 
 7/15/18 10:40p   60.2   60.2   60.0    92   57.9   5.0   ENE   0.83  12.0   ENE   60.2   60.6   60.6   57.9  30.031  0.00  0.00     0     0.00      0     0.0  0.00   0.0   0.033   0.000   73.5    59   58.3   74.0  10.81  .0735    0.000   213    5    100.0   10 
 7/15/18 10:50p   60.2   60.3   60.2    92   57.9   5.0   ENE   0.83  11.0   ENE   60.2   60.6   60.6   57.9  30.033  0.00  0.00     0     0.00      0     0.0  0.00   0.0   0.033   0.000   73.5    59   58.3   74.0  10.81  .0735    0.000   213    5    100.0   10 
 7/15/18 11:00p   60.2   60.3   60.2    92   57.9   4.0   ENE   0.67  10.0   ENE   60.2   60.6   60.6   57.9  30.032  0.00  0.00     0     0.00      0     0.0  0.00   0.0   0.033   0.000   73.5    59   58.3   74.0  10.81  .0735    0.001   210    5    100.0   10 
 7/15/18 11:10p   60.1   60.2   60.0    92   57.8   5.0   ENE   0.83  11.0   ENE   60.1   60.4   60.4   57.7  30.032  0.00  0.00     0     0.00      0     0.0  0.00   0.0   0.034   0.000   73.5    59   58.3   74.0  10.81  .0735    0.000   210    5    100.0   10 
 7/15/18 11:20p   59.8   60.0   59.8    92   57.5   5.0   ENE   0.83   9.0     E   59.8   60.1   60.1   57.4  30.032  0.00  0.00     0     0.00      0     0.0  0.00   0.0   0.036   0.000   73.5    59   58.3   74.0  10.81  .0735    0.000   212    5    100.0   10 
 7/15/18 11:30p   59.3   59.8   59.3    92   57.0   4.0    NE   0.67   9.0   ENE   59.3   59.6   59.6   56.8  30.030  0.00  0.00     0     0.00      0     0.0  0.00   0.0   0.040   0.000   73.5    59   58.3   74.0  10.81  .0735    0.000   212    5    100.0   10 
 7/15/18 11:40p   58.5   59.3   58.5    92   56.2   5.0    NE   0.83   9.0   NNE   58.2   58.7   58.4   55.6  30.031  0.00  0.00     0     0.00      0     0.0  0.00   0.0   0.045   0.000   73.5    59   58.3   74.0  10.81  .0735    0.000   214    5    100.0   10 
 7/15/18 11:50p   57.8   58.5   57.8    92   55.5   5.0    NE   0.83   9.0    NE   57.4   58.0   57.6   54.8  30.029  0.00  0.00     0     0.00      0     0.0  0.00   0.0   0.050   0.000   73.5    59   58.3   74.0  10.81  .0735    0.000   212    5    100.0   10 
 7/16/18 12:00a   57.4   57.8   57.4    92   55.1   3.0   ENE   0.50   6.0   ENE   57.4   57.6   57.6   54.8  30.028  0.00  0.00     0     0.00      0     0.0  0.00   0.0   0.053   0.000   73.5    59   58.3   74.0  10.81  .0735    0.000   212    5    100.0   10 
 7/16/18 12:10a   57.0   57.4   57.0    92   54.7   3.0    NE   0.50   6.0   ENE   57.0   57.1   57.1   54.2  30.028  0.00  0.00     0     0.00      0     0.0  0.00   0.0   0.056   0.000   73.5    59   58.3   74.0  10.81  .0735    0.000   211    5    100.0   10 
 7/16/18 12:20a   57.1   57.1   56.9    93   55.1   2.0   ENE   0.33   7.0   ENE   57.1   57.3   57.3   54.5  30.029  0.00  0.00     0     0.00      0     0.0  0.00   0.0   0.055   0.000   73.5    59   58.3   74.0  10.81  .0735    0.000   212    5    100.0   10 
 7/16/18 12:30a   57.5   57.5   57.1    93   55.5   4.0    NE   0.67   7.0     E   57.5   57.7   57.7   54.9  30.028  0.00  0.00     0     0.00      0     0.0  0.00   0.0   0.052   0.000   73.5    59   58.3   74.0  10.81  .0735    0.000   214    5    100.0   10 
 7/16/18 12:40a   58.0   58.0   57.5    93   56.0   4.0   ENE   0.67   9.0   ENE   58.0   58.2   58.2   55.4  30.033  0.00  0.00     0     0.00      0     0.0  0.00   0.0   0.049   0.000   73.5    59   58.3   74.0  10.81  .0735    0.000   212    5    100.0   10 
 7/16/18 12:50a   58.7   58.7   58.0    93   56.7   6.0   ENE   1.00  12.0     E   58.0   59.0   58.3   55.5  30.035  0.00  0.00     0     0.00      0     0.0  0.00   0.0   0.044   0.000   73.5    59   58.3   74.0  10.81  .0735    0.000   209    5    100.0   10 
 7/16/18  1:00a   58.9   58.9   58.7    93   56.9   5.0   ENE   0.83  11.0   ENE   58.7   59.2   59.0   56.2  30.036  0.00  0.00     0     0.00      0     0.0  0.00   0.0   0.042   0.000   73.5    59   58.3   74.0  10.81  .0735    0.000   214    5    100.0   10 
 7/16/18  1:10a   59.1   59.1   58.9    93   57.1   6.0   ENE   1.00  13.0   ENE   58.5   59.4   58.8   56.1  30.038  0.00  0.00     0     0.00      0     0.0  0.00   0.0   0.041   0.000   73.5    59   58.3   74.0  10.81  .0735    0.000   212    5    100.0   10 
 7/16/18  1:20a   59.2   59.2   59.1    93   57.2   5.0   ENE   0.83  11.0     E   59.0   59.5   59.3   56.6  30.039  0.00  0.00     0     0.00      0     0.0  0.00   0.0   0.040   0.000   73.4    59   58.2   73.8  10.81  .0735    0.000   212    5    100.0   10 
 7/16/18  1:30a   59.3   59.3   59.2    93   57.3   7.0   ENE   1.17  13.0   ENE   58.4   59.6   58.7   56.0  30.037  0.00  0.00     0     0.00      0     0.0  0.00   0.0   0.040   0.000   73.4    59   58.2   73.8  10.81  .0735    0.000   214    5    100.0   10 
 7/16/18  1:40a   59.3   59.3   59.3    93   57.3   6.0   ENE   1.00  14.0   ENE   58.8   59.6   59.1   56.4  30.035  0.00  0.00     0     0.00      0     0.0  0.00   0.0   0.040   0.000   73.4    59   58.2   73.8  10.81  .0735    0.000   206    5     99.5   10 
 7/16/18  1:50a   59.3   59.3   59.3    93   57.3   6.0   ENE   1.00  14.0   ENE   58.8   59.6   59.1   56.4  30.036  0.00  0.00     0     0.00      0     0.0  0.00   0.0   0.040   0.000   73.4    58   57.7   73.7  10.61  .0735    0.000   209    5    100.0   10 
 7/16/18  2:00a   59.2   59.3   59.2    93   57.2   5.0   ENE   0.83  11.0    NE   59.0   59.5   59.3   56.6  30.035  0.00  0.00     0     0.00      0     0.0  0.00   0.0   0.040   0.000   73.3    58   57.6   73.6  10.62  .0736    0.000   212    5    100.0   10 
 7/16/18  2:10a   59.2   59.2   59.2    93   57.2   5.0   ENE   0.83  12.0   ENE   59.0   59.5   59.3   56.6  30.033  0.00  0.00     0     0.00      0     0.0  0.00   0.0   0.040   0.000   73.3    58   57.6   73.6  10.62  .0735    0.000   212    5    100.0   10 
 7/16/18  2:20a   59.2   59.2   59.2    93   57.2   6.0   ENE   1.00  15.0    NE   58.6   59.5   58.9   56.2  30.035  0.00  0.00     0     0.00      0     0.0  0.00   0.0   0.040   0.000   73.3    58   57.6   73.6  10.62  .0736    0.000   207    5    100.0   10 
 7/16/18  2:30a   59.1   59.2   59.1    93   57.1   6.0   ENE   1.00  12.0    NE   58.5   59.4   58.8   56.1  30.035  0.00  0.00     0     0.00      0     0.0  0.00   0.0   0.041   0.000   73.3    58   57.6   73.6  10.62  .0736    0.000   211    5    100.0   10 
 7/16/18  2:40a   59.0   59.1   58.9    93   57.0   6.0   ENE   1.00  11.0   NNE   58.4   59.3   58.7   55.9  30.035  0.00  0.00     0     0.00      0     0.0  0.00   0.0   0.042   0.000   73.3    58   57.6   73.6  10.62  .0736    0.000   212    5    100.0   10 
 7/16/18  2:50a   59.0   59.0   58.9    93   57.0   5.0   ENE   0.83  11.0   ENE   58.8   59.3   59.1   56.3  30.033  0.00  0.00     0     0.00      0     0.0  0.00   0.0   0.042   0.000   73.3    58   57.6   73.6  10.62  .0735    0.000   213    5    100.0   10 
 7/16/18  3:00a   59.0   59.1   59.0    94   57.3   5.0   ENE   0.83  10.0    NE   58.8   59.4   59.2   56.5  30.032  0.00  0.00     0     0.00      0     0.0  0.00   0.0   0.042   0.000   73.3    58   57.6   73.6  10.62  .0735    0.000   214    5    100.0   10 
 7/16/18  3:10a   59.1   59.1   59.0    94   57.4   6.0   ENE   1.00  11.0   ENE   58.5   59.5   58.9   56.2  30.032  0.00  0.00     0     0.00      0     0.0  0.00   0.0   0.041   0.000   73.2    58   57.5   73.5  10.62  .0736    0.000   213    5    100.0   10 
 7/16/18  3:20a   59.1   59.1   59.0    94   57.4   6.0   ENE   1.00  12.0    NE   58.5   59.5   58.9   56.2  30.032  0.00  0.00     0     0.00      0     0.0  0.00   0.0   0.041   0.000   73.2    58   57.5   73.5  10.62  .0736    0.000   209    5    100.0   10 
 7/16/18  3:30a   59.1   59.1   59.1    94   57.4   6.0   ENE   1.00  13.0   ENE   58.5   59.5   58.9   56.2  30.033  0.00  0.00     0     0.00      0     0.0  0.00   0.0   0.041   0.000   73.2    58   57.5   73.5  10.62  .0736    0.000   212    5    100.0   10 
 7/16/18  3:40a   58.9   59.1   58.9    94   57.2   6.0   ENE   1.00  14.0   ENE   58.3   59.3   58.7   56.0  30.036  0.00  0.00     0     0.00      0     0.0  0.00   0.0   0.042   0.000   73.1    58   57.4   73.4  10.63  .0736    0.000   212    5    100.0   10 
 7/16/18  3:50a   58.9   58.9   58.8    94   57.2   6.0   ENE   1.00  14.0   NNE   58.3   59.3   58.7   56.0  30.038  0.00  0.00     0     0.00      0     0.0  0.00   0.0   0.042   0.000   73.1    58   57.4   73.4  10.63  .0736    0.000   210    5    100.0   10 
 7/16/18  4:00a   58.7   58.9   58.7    94   57.0   5.0   ENE   0.83  12.0    NE   58.4   59.0   58.7   55.9  30.034  0.00  0.00     0     0.00      0     0.0  0.00   0.0   0.044   0.000   73.1    58   57.4   73.4  10.63  .0736    0.000   212    5    100.0   10 
 7/16/18  4:10a   58.6   58.7   58.6    94   56.9   6.0   ENE   1.00  11.0     E   57.9   58.9   58.2   55.4  30.035  0.00  0.00     0     0.00      0     0.0  0.00   0.0   0.044   0.000   73.1    58   57.4   73.4  10.63  .0736    0.000   212    5    100.0   10 
 7/16/18  4:20a   58.5   58.6   58.5    94   56.8   7.0   ENE   1.17  16.0   ENE   57.4   58.8   57.7   54.9  30.036  0.00  0.00     0     0.00      0     0.0  0.00   0.0   0.045   0.000   73.0    58   57.3   73.2  10.63  .0736    0.000   211    5    100.0   10 
 7/16/18  4:30a   58.4   58.5   58.4    94   56.7   7.0   ENE   1.17  13.0    NE   57.3   58.7   57.6   54.8  30.037  0.00  0.00     0     0.00      0     0.0  0.00   0.0   0.046   0.000   73.0    58   57.3   73.2  10.63  .0736    0.000   213    5    100.0   10 
 7/16/18  4:40a   58.3   58.4   58.3    94   56.6   7.0   ENE   1.17  14.0    NE   57.2   58.6   57.5   54.7  30.037  0.00  0.00     0     0.00      0     0.0  0.00   0.0   0.047   0.000   73.0    58   57.3   73.2  10.63  .0736    0.000   210    5    100.0   10 
 7/16/18  4:50a   58.3   58.3   58.2    94   56.6   8.0   ENE   1.33  17.0   ENE   56.5   58.6   56.8   54.1  30.039  0.00  0.00     0     0.00      0     0.0  0.00   0.0   0.047   0.000   72.9    58   57.3   73.1  10.63  .0736    0.000   211    5    100.0   10 
 7/16/18  5:00a   58.2   58.3   58.2    94   56.5   6.0   ENE   1.00  13.0    NE   57.4   58.5   57.7   54.9  30.040  0.00  0.00     0     0.00      0     0.0  0.00   0.0   0.047   0.000   72.9    58   57.3   73.1  10.63  .0736    0.000   213    5    100.0   10 
 7/16/18  5:10a   58.2   58.3   58.2    94   56.5   8.0   ENE   1.33  17.0   ENE   56.3   58.5   56.6   53.9  30.039  0.00  0.00     0     0.00      0     0.0  0.00   0.0   0.047   0.000   72.9    58   57.3   73.1  10.63  .0736    0.000   211    5    100.0   10 
 7/16/18  5:20a   58.2   58.2   58.2    95   56.8   8.0   ENE   1.33  13.0   ENE   56.3   58.5   56.6   53.9  30.041  0.00  0.00     0     0.00      0     0.0  0.00   0.0   0.047   0.000   72.9    58   57.3   73.1  10.63  .0736    0.000   211    5    100.0   10 
 7/16/18  5:30a   58.2   58.2   58.2    95   56.8   6.0   ENE   1.00  16.0   ENE   57.4   58.5   57.7   54.9  30.042  0.00  0.00     0     0.00      0     0.0  0.00   0.0   0.047   0.000   72.9    58   57.3   73.1  10.63  .0736    0.000   212    5    100.0   10 
 7/16/18  5:40a   58.1   58.2   58.1    94   56.4   6.0   ENE   1.00  16.0   ENE   57.3   58.4   57.6   54.8  30.044  0.00  0.00     0     0.00      0     0.0  0.00   0.0   0.048   0.000   72.8    58   57.2   72.9  10.64  .0737    0.000   211    5    100.0   10 
 7/16/18  5:50a   58.0   58.1   58.0    94   56.3   7.0   ENE   1.17  13.0   ENE   56.8   58.3   57.1   54.3  30.048  0.00  0.00     0     0.00      0     0.0  0.00   0.0   0.049   0.000   72.8    58   57.2   72.9  10.64  .0737    0.000   212    5    100.0   10 
 7/16/18  6:00a   58.0   58.0   57.9    95   56.6   6.0   ENE   1.00  14.0    NE   57.2   58.3   57.5   54.8  30.049  0.00  0.00     1     0.01      5     0.0  0.00   0.0   0.049   0.000   72.8    58   57.2   72.9  10.64  .0737    0.000   212    5    100.0   10 
 7/16/18  6:10a   58.0   58.0   58.0    95   56.6   6.0   ENE   1.00  13.0     E   57.2   58.3   57.5   54.9  30.053  0.00  0.00     6     0.09      7     0.0  0.00   0.0   0.049   0.000   72.7    58   57.1   72.8  10.64  .0737    0.000   211    5    100.0   10 
 7/16/18  6:20a   57.9   58.0   57.9    95   56.5   6.0    NE   1.00  12.0   ENE   57.1   58.2   57.4   54.9  30.055  0.00  0.00    10     0.14     12     0.0  0.00   0.0   0.049   0.000   72.7    58   57.1   72.8  10.64  .0737    0.000   212    5    100.0   10 
 7/16/18  6:30a   57.7   57.9   57.7    95   56.3   6.0   ENE   1.00  15.0    NE   56.8   58.0   57.1   54.7  30.057  0.00  0.00    15     0.22     16     0.0  0.00   0.0   0.051   0.000   72.7    58   57.1   72.8  10.64  .0737    0.000   214    5    100.0   10 
 7/16/18  6:40a   57.2   57.7   57.2    94   55.5   4.0    NE   0.67   8.0   NNE   57.2   57.4   57.4   55.0  30.058  0.00  0.00    19     0.27     21     0.0  0.00   0.0   0.054   0.000   72.7    58   57.1   72.8  10.64  .0737    0.000   211    5    100.0   10 
 7/16/18  6:50a   56.3   57.2   56.3    95   54.9   4.0   ENE   0.67  10.0   ENE   56.2   56.5   56.4   55.9  30.061  0.00  0.00    28     0.40     37     0.0  0.00   0.0   0.060   0.000   72.5    58   56.9   72.5  10.65  .0738    0.000   212    5    100.0   10 
 7/16/18  7:00a   56.2   56.4   56.2    95   54.8   3.0    NE   0.50   7.0    NE   56.2   56.4   56.4   56.3  30.063  0.00  0.00    36     0.52     44     0.0  0.00   0.0   0.061   0.000   72.4    58   56.8   72.3  10.65  .0738    0.001   212    5    100.0   10 
 7/16/18  7:10a   55.7   56.2   55.7    95   54.3   4.0    NE   0.67   9.0   NNE   55.4   55.9   55.6   55.5  30.067  0.00  0.00    39     0.56     40     0.0  0.00   0.0   0.065   0.000   72.3    58   56.7   72.2  10.66  .0738    0.000   185    5     89.4   10 
 7/16/18  7:20a   56.7   56.7   55.7    96   55.6   5.0   ENE   0.83  10.0   NNE   56.1   56.9   56.3   56.8  30.069  0.00  0.00    51     0.73     54     0.0  0.00   0.0   0.058   0.000   72.1    58   56.5   71.9  10.67  .0739    0.000   212    5    100.0   10 
 7/16/18  7:30a   57.3   57.3   56.7    95   55.9   5.0   ENE   0.83  15.0    NE   56.8   57.5   57.0   57.6  30.073  0.00  0.00    56     0.80     65     0.0  0.00   0.0   0.053   0.000   72.0    58   56.4   71.7  10.67  .0739    0.000   211    5    100.0   10 
 7/16/18  7:40a   57.6   57.6   57.3    95   56.2   5.0   ENE   0.83  13.0   ENE   57.1   57.9   57.4   58.1  30.073  0.00  0.00    59     0.85     72     0.0  0.00   0.0   0.051   0.000   71.9    58   56.3   71.6  10.67  .0739    0.000   212    5    100.0   10 
 7/16/18  7:50a   57.4   57.6   57.4    95   56.0   5.0    NE   0.83  10.0   NNE   56.9   57.6   57.1   58.3  30.073  0.00  0.00    74     1.06     90     0.0  0.00   0.0   0.053   0.000   71.8    58   56.2   71.5  10.68  .0739    0.000   212    5    100.0   10 
 7/16/18  8:00a   56.7   57.4   56.7    95   55.3   4.0    NE   0.67  10.0    NE   56.6   56.9   56.8   58.4  30.075  0.00  0.00    89     1.28    100     0.0  0.00   0.0   0.058   0.000   71.7    59   56.6   71.4  10.88  .0739    0.001   210    5    100.0   10 
 7/16/18  8:10a   55.9   56.7   55.9    95   54.5   5.0    NE   0.83   9.0    NE   55.2   56.1   55.4   57.8  30.075  0.00  0.00   115     1.65    128     0.0  0.00   0.0   0.063   0.000   71.7    58   56.1   71.3  10.68  .0739    0.000   213    5    100.0   10 
 7/16/18  8:20a   57.0   57.0   55.9    95   55.6   7.0    NE   1.17  12.0   NNE   55.6   57.2   55.8   57.8  30.076  0.00  0.00   106     1.52    137     0.0  0.00   0.0   0.056   0.000   71.6    58   56.0   71.2  10.69  .0740    0.000   214    5    100.0   10 
 7/16/18  8:30a   57.0   57.2   57.0    95   55.6   7.0    NE   1.17  12.0   ENE   55.6   57.2   55.8   58.4  30.080  0.00  0.00   128     1.83    132     0.0  0.00   0.0   0.056   0.000   71.4    59   56.3   71.0  10.89  .0740    0.000   213    5    100.0   10 
 7/16/18  8:40a   57.4   57.4   57.0    95   56.0   9.0    NE   1.50  15.0     E   54.6   57.6   54.8   57.3  30.084  0.00  0.00   135     1.94    144     0.0  0.00   0.0   0.053   0.000   71.3    59   56.2   70.8  10.90  .0740    0.000   213    5    100.0   10 
 7/16/18  8:50a   57.8   57.8   57.4    95   56.4   9.0   ENE   1.50  15.0   ENE   55.1   58.1   55.4   58.1  30.081  0.00  0.00   150     2.15    160     0.0  0.00   0.0   0.050   0.000   71.2    59   56.1   70.7  10.90  .0740    0.000   213    5    100.0   10 
 7/16/18  9:00a   58.0   58.0   57.8    95   56.6   8.0    NE   1.33  16.0    NE   56.1   58.3   56.4   59.4  30.085  0.00  0.00   160     2.29    178     0.0  0.00   0.0   0.049   0.000   71.1    59   56.0   70.5  10.91  .0740    0.003   211    5    100.0   10 
 7/16/18  9:10a   57.7   58.0   57.7    94   56.0   6.0   ENE   1.00  11.0   ENE   56.8   57.9   57.0   60.3  30.089  0.00  0.00   169     2.42    185     0.0  0.00   0.0   0.051   0.000   71.1    59   56.0   70.5  10.91  .0741    0.000   213    5    100.0   10 
 7/16/18  9:20a   57.6   57.7   57.6    95   56.2   5.0    NE   0.83  11.0   NNE   57.1   57.9   57.4   61.2  30.090  0.00  0.00   190     2.72    209     0.0  0.00   0.0   0.051   0.000   71.1    59   56.0   70.5  10.91  .0741    0.000   214    5    100.0   10 
Email: AdamSPAM@StormwatchersRetreat.com (To send me email remove the word 'SPAM' from my email address.)